createdAt,value
2024-03-11T00:00:16.789Z,100194.88
2024-03-11T00:02:44.394Z,100183.88
2024-03-11T00:05:13.494Z,100182.00
2024-03-11T00:07:42.067Z,100179.72
2024-03-11T00:10:13.152Z,100170.38
2024-03-11T00:12:50.529Z,100161.66
2024-03-11T00:15:22.183Z,100167.44
2024-03-11T00:17:49.423Z,100172.00
2024-03-11T00:20:16.361Z,100170.09
2024-03-11T00:22:43.184Z,100169.91
2024-03-11T00:25:10.679Z,100163.28
2024-03-11T00:27:38.084Z,100162.84
2024-03-11T00:30:09.924Z,100155.19
2024-03-11T00:32:37.652Z,100170.91
2024-03-11T00:35:04.892Z,100181.47
2024-03-11T00:37:32.897Z,100179.00
2024-03-11T00:39:59.700Z,100178.56
2024-03-11T00:42:26.352Z,100167.59
2024-03-11T00:44:53.052Z,100169.84
2024-03-11T00:47:20.252Z,100176.91
2024-03-11T00:49:47.160Z,100173.97
2024-03-11T00:52:13.856Z,100175.84
2024-03-11T00:54:40.684Z,100183.53
2024-03-11T00:57:07.723Z,100171.97
2024-03-11T00:59:34.641Z,100181.09
2024-03-11T01:02:01.574Z,100187.31
2024-03-11T01:04:28.344Z,100183.19
2024-03-11T01:07:04.297Z,100171.59
2024-03-11T01:09:39.307Z,100185.69
2024-03-11T01:12:06.977Z,100175.53
2024-03-11T01:14:34.160Z,100182.00
2024-03-11T01:17:03.446Z,100171.63
2024-03-11T01:19:30.159Z,100178.88
2024-03-11T01:21:58.501Z,100180.75
2024-03-11T01:24:25.461Z,100179.56
2024-03-11T01:26:53.110Z,100184.31
2024-03-11T01:29:19.935Z,100168.16
2024-03-11T01:31:46.932Z,100163.19
2024-03-11T01:34:14.324Z,100178.75
2024-03-11T01:36:41.106Z,100168.81
2024-03-11T01:39:10.602Z,100164.84
2024-03-11T01:41:38.311Z,100175.03
2024-03-11T01:44:07.132Z,100156.16
2024-03-11T01:46:34.827Z,100175.47
2024-03-11T01:49:05.784Z,100169.84
2024-03-11T01:51:35.306Z,100171.94
2024-03-11T01:54:02.556Z,100161.38
2024-03-11T01:56:30.091Z,100162.59
2024-03-11T01:58:58.992Z,100163.03
2024-03-11T02:01:27.899Z,100154.72
2024-03-11T02:03:54.621Z,100156.59
2024-03-11T02:06:21.333Z,100157.84
2024-03-11T02:08:48.045Z,100147.47
2024-03-11T02:11:14.853Z,100156.59
2024-03-11T02:13:42.807Z,100147.84
2024-03-11T02:16:09.637Z,100154.50
2024-03-11T02:18:36.299Z,100147.03
2024-03-11T02:21:03.468Z,100152.63
2024-03-11T02:23:30.442Z,100148.50
2024-03-11T02:25:57.183Z,100144.34
2024-03-11T02:28:24.877Z,100147.03
2024-03-11T02:30:51.518Z,100138.75
2024-03-11T02:33:18.486Z,100141.63
2024-03-11T02:35:45.292Z,100131.47
2024-03-11T02:38:12.080Z,100139.56
2024-03-11T02:40:40.395Z,100119.66
2024-03-11T02:43:07.989Z,100134.81
2024-03-11T02:45:35.704Z,100123.59
2024-03-11T02:48:03.064Z,100121.50
2024-03-11T02:50:30.085Z,100112.19
2024-03-11T02:52:57.722Z,100113.44
2024-03-11T02:55:24.664Z,100119.44
2024-03-11T02:57:52.624Z,100109.09
2024-03-11T03:00:20.278Z,100112.81
2024-03-11T03:02:51.174Z,100117.16
2024-03-11T03:05:18.728Z,100111.75
2024-03-11T03:07:45.455Z,100097.88
2024-03-11T03:10:12.699Z,100106.59
2024-03-11T03:12:39.560Z,100109.06
2024-03-11T03:15:07.726Z,100096.41
2024-03-11T03:17:34.988Z,100099.75
2024-03-11T03:20:01.982Z,100090.81
2024-03-11T03:22:29.312Z,100107.63
2024-03-11T03:24:55.975Z,100103.69
2024-03-11T03:27:22.748Z,100102.63
2024-03-11T03:29:50.276Z,100106.97
2024-03-11T03:32:20.789Z,100116.75
2024-03-11T03:34:47.624Z,100115.94
2024-03-11T03:37:15.646Z,100101.19
2024-03-11T03:39:45.570Z,100102.63
2024-03-11T03:42:12.298Z,100099.09
2024-03-11T03:44:38.982Z,100099.31
2024-03-11T03:47:06.127Z,100110.94
2024-03-11T03:49:33.974Z,100101.81
2024-03-11T03:52:01.045Z,100105.94
2024-03-11T03:54:28.949Z,100118.59
2024-03-11T03:56:56.125Z,100105.94
2024-03-11T03:59:23.460Z,100110.53
2024-03-11T04:01:50.251Z,100100.38
2024-03-11T04:04:16.928Z,100097.03
2024-03-11T04:06:44.578Z,100101.00
2024-03-11T04:09:11.457Z,100091.47
2024-03-11T04:11:38.292Z,100097.06
2024-03-11T04:14:07.281Z,100082.78
2024-03-11T04:16:34.040Z,100098.94
2024-03-11T04:19:00.736Z,100089.81
2024-03-11T04:21:27.346Z,100097.47
2024-03-11T04:23:54.150Z,100088.13
2024-03-11T04:26:21.181Z,100105.16
2024-03-11T04:28:47.760Z,100099.97
2024-03-11T04:31:14.546Z,100111.56
2024-03-11T04:33:41.645Z,100114.25
2024-03-11T04:36:08.371Z,100110.56
2024-03-11T04:38:35.138Z,100117.78
2024-03-11T04:41:03.812Z,100122.34
2024-03-11T04:43:30.837Z,100120.69
2024-03-11T04:45:57.437Z,100129.59
2024-03-11T04:48:24.928Z,100121.34
2024-03-11T04:50:52.797Z,100121.94
2024-03-11T04:53:19.860Z,100127.75
2024-03-11T04:55:48.102Z,100127.34
2024-03-11T04:58:14.739Z,100125.25
2024-03-11T05:00:42.065Z,100127.56
2024-03-11T05:03:09.146Z,100117.00
2024-03-11T05:05:37.637Z,100124.84
2024-03-11T05:08:05.700Z,100125.47
2024-03-11T05:10:32.876Z,100120.50
2024-03-11T05:13:00.335Z,100110.53
2024-03-11T05:15:27.936Z,100117.41
2024-03-11T05:17:55.478Z,100111.78
2024-03-11T05:20:22.950Z,100111.78
2024-03-11T05:22:50.500Z,100107.63
2024-03-11T05:25:19.206Z,100109.31
2024-03-11T05:27:48.398Z,100116.56
2024-03-11T05:30:16.143Z,100115.53
2024-03-11T05:32:43.112Z,100110.31
2024-03-11T05:35:10.215Z,100121.53
2024-03-11T05:37:37.351Z,100098.28
2024-03-11T05:40:07.945Z,100112.38
2024-03-11T05:42:36.100Z,100121.31
2024-03-11T05:45:03.977Z,100107.63
2024-03-11T05:47:31.275Z,100132.31
2024-03-11T05:49:58.047Z,100136.88
2024-03-11T05:52:27.500Z,100142.25
2024-03-11T05:54:54.725Z,100149.13
2024-03-11T05:57:31.338Z,100155.94
2024-03-11T05:59:58.293Z,100155.53
2024-03-11T06:02:25.172Z,100161.78
2024-03-11T06:04:52.354Z,100151.81
2024-03-11T06:07:21.594Z,100154.06
2024-03-11T06:09:48.682Z,100161.13
2024-03-11T06:12:15.478Z,100167.97
2024-03-11T06:14:42.318Z,100143.50
2024-03-11T06:17:11.961Z,100156.16
2024-03-11T06:19:39.204Z,100159.44
2024-03-11T06:22:06.323Z,100160.91
2024-03-11T06:24:34.560Z,100164.44
2024-03-11T06:27:01.181Z,100160.09
2024-03-11T06:29:28.254Z,100140.56
2024-03-11T06:31:56.438Z,100157.78
2024-03-11T06:34:24.783Z,100154.69
2024-03-11T06:36:51.943Z,100150.13
2024-03-11T06:39:19.681Z,100153.84
2024-03-11T06:41:46.452Z,100153.63
2024-03-11T06:44:18.023Z,100157.16
2024-03-11T06:46:49.256Z,100159.25
2024-03-11T06:49:16.646Z,100159.25
2024-03-11T06:51:43.226Z,100157.16
2024-03-11T06:54:09.910Z,100172.13
2024-03-11T06:56:36.556Z,100162.56
2024-03-11T06:59:03.260Z,100178.34
2024-03-11T07:01:30.544Z,100190.19
2024-03-11T07:03:57.424Z,100193.50
2024-03-11T07:06:26.836Z,100189.13
2024-03-11T07:08:53.545Z,100188.09
2024-03-11T07:11:20.351Z,100189.75
2024-03-11T07:13:47.046Z,100200.75
2024-03-11T07:16:13.891Z,100198.88
2024-03-11T07:18:43.419Z,100202.63
2024-03-11T07:21:11.912Z,100192.25
2024-03-11T07:23:38.566Z,100198.69
2024-03-11T07:26:05.778Z,100194.94
2024-03-11T07:28:35.435Z,100197.63
2024-03-11T07:31:02.447Z,100191.84
2024-03-11T07:33:29.244Z,100194.94
2024-03-11T07:35:59.131Z,100200.97
2024-03-11T07:38:27.182Z,100199.09
2024-03-11T07:40:53.985Z,100185.78
2024-03-11T07:43:20.626Z,100193.28
2024-03-11T07:45:47.400Z,100187.88
2024-03-11T07:48:14.371Z,100201.97
2024-03-11T07:50:42.078Z,100195.94
2024-03-11T07:53:09.907Z,100196.78
2024-03-11T07:55:36.838Z,100195.94
2024-03-11T07:58:04.237Z,100185.31
2024-03-11T08:00:31.405Z,100171.44
2024-03-11T08:02:59.261Z,100165.41
2024-03-11T08:05:26.962Z,100191.91
2024-03-11T08:07:53.634Z,100203.59
2024-03-11T08:10:20.620Z,100209.16
2024-03-11T08:12:52.525Z,100215.63
2024-03-11T08:15:21.965Z,100212.31
2024-03-11T08:17:51.090Z,100218.91
2024-03-11T08:20:19.898Z,100202.72
2024-03-11T08:22:49.042Z,100217.25
2024-03-11T08:25:24.508Z,100218.72
2024-03-11T08:27:53.801Z,100225.16
2024-03-11T08:30:23.223Z,100223.69
2024-03-11T08:32:54.493Z,100236.38
2024-03-11T08:35:25.277Z,100228.91
2024-03-11T08:37:52.473Z,100244.91
2024-03-11T08:40:21.374Z,100245.94
2024-03-11T08:42:49.584Z,100245.94
2024-03-11T08:45:19.986Z,100254.03
2024-03-11T08:47:48.115Z,100235.97
2024-03-11T08:50:18.679Z,100250.50
2024-03-11T08:52:47.070Z,100252.81
2024-03-11T08:55:17.555Z,100262.34
2024-03-11T08:57:46.980Z,100256.75
2024-03-11T09:00:17.401Z,100257.19
2024-03-11T09:02:46.601Z,100257.59
2024-03-11T09:05:14.730Z,100251.16
2024-03-11T09:07:42.416Z,100246.00
2024-03-11T09:10:10.897Z,100262.75
2024-03-11T09:12:42.520Z,100270.06
2024-03-11T09:15:25.019Z,100272.31
2024-03-11T09:17:53.260Z,100277.91
2024-03-11T09:20:23.091Z,100282.88
2024-03-11T09:22:54.579Z,100265.22
2024-03-11T09:25:27.004Z,100264.19
2024-03-11T09:28:03.627Z,100260.03
2024-03-11T09:30:34.505Z,100257.09
2024-03-11T09:33:03.007Z,100250.88
2024-03-11T09:35:30.714Z,100245.50
2024-03-11T09:37:58.594Z,100256.47
2024-03-11T09:40:29.323Z,100254.19
2024-03-11T09:42:57.832Z,100273.47
2024-03-11T09:45:31.155Z,100276.19
2024-03-11T09:48:00.612Z,100280.16
2024-03-11T09:50:35.249Z,100288.66
2024-03-11T09:53:05.551Z,100280.00
2024-03-11T09:55:35.132Z,100285.16
2024-03-11T09:58:15.030Z,100278.53
2024-03-11T10:00:51.415Z,100285.34
2024-03-11T10:03:34.545Z,100297.81
2024-03-11T10:06:09.064Z,100293.69
2024-03-11T10:08:37.085Z,100304.91
2024-03-11T10:11:22.542Z,100303.25
2024-03-11T10:13:54.379Z,100302.19
2024-03-11T10:16:23.459Z,100313.22
2024-03-11T10:19:13.484Z,100310.31
2024-03-11T10:21:42.439Z,100313.44
2024-03-11T10:24:15.985Z,100306.56
2024-03-11T10:26:43.411Z,100311.16
2024-03-11T10:29:19.148Z,100304.50
2024-03-11T10:31:46.895Z,100307.81
2024-03-11T10:34:17.860Z,100302.00
2024-03-11T10:36:47.886Z,100311.34
2024-03-11T10:39:19.637Z,100307.19
2024-03-11T10:41:53.432Z,100315.91
2024-03-11T10:44:25.462Z,100299.94
2024-03-11T10:46:52.664Z,100304.50
2024-03-11T10:49:22.789Z,100308.22
2024-03-11T10:51:49.614Z,100298.25
2024-03-11T10:54:44.580Z,100317.38
2024-03-11T10:57:40.385Z,100323.19
2024-03-11T11:00:18.356Z,100325.69
2024-03-11T11:02:48.076Z,100326.28
2024-03-11T11:05:17.222Z,100326.13
2024-03-11T11:07:45.136Z,100334.41
2024-03-11T11:10:19.161Z,100330.44
2024-03-11T11:12:47.155Z,100322.75
2024-03-11T11:15:15.320Z,100344.16
2024-03-11T11:17:43.803Z,100334.41
2024-03-11T11:20:34.168Z,100340.63
2024-03-11T11:23:01.899Z,100340.19
2024-03-11T11:25:41.606Z,100346.41
2024-03-11T11:28:09.103Z,100343.91
2024-03-11T11:30:37.913Z,100343.25
2024-03-11T11:33:05.758Z,100331.16
2024-03-11T11:35:35.031Z,100346.28
2024-03-11T11:38:25.031Z,100357.91
2024-03-11T11:40:55.098Z,100363.94
2024-03-11T11:43:22.539Z,100353.09
2024-03-11T11:45:56.819Z,100357.91
2024-03-11T11:48:29.300Z,100358.50
2024-03-11T11:51:00.668Z,100362.03
2024-03-11T11:53:29.124Z,100357.69
2024-03-11T11:55:57.909Z,100362.25
2024-03-11T11:58:25.798Z,100348.31
2024-03-11T12:01:02.897Z,100362.00
2024-03-11T12:03:32.092Z,100362.44
2024-03-11T12:06:22.229Z,100363.03
2024-03-11T12:08:49.435Z,100366.97
2024-03-11T12:11:19.232Z,100363.63
2024-03-11T12:13:50.797Z,100368.59
2024-03-11T12:16:25.418Z,100364.84
2024-03-11T12:19:01.446Z,100363.00
2024-03-11T12:21:30.141Z,100365.69
2024-03-11T12:23:57.913Z,100369.78
2024-03-11T12:26:32.073Z,100362.69
2024-03-11T12:29:14.391Z,100357.22
2024-03-11T12:31:42.987Z,100355.84
2024-03-11T12:34:11.893Z,100364.78
2024-03-11T12:36:42.126Z,100374.00
2024-03-11T12:39:27.623Z,100370.91
2024-03-11T12:41:58.683Z,100372.38
2024-03-11T12:44:27.371Z,100382.41
2024-03-11T12:46:57.563Z,100376.22
2024-03-11T12:49:29.462Z,100370.78
2024-03-11T12:52:14.286Z,100381.63
2024-03-11T12:54:41.248Z,100369.19
2024-03-11T12:57:17.245Z,100373.81
2024-03-11T12:59:58.258Z,100380.06
2024-03-11T13:02:25.096Z,100381.31
2024-03-11T13:04:54.634Z,100387.97
2024-03-11T13:07:24.838Z,100364.31
2024-03-11T13:09:55.866Z,100387.13
2024-03-11T13:12:23.383Z,100382.56
2024-03-11T13:14:51.379Z,100393.19
2024-03-11T13:17:24.259Z,100385.28
2024-03-11T13:19:57.710Z,100382.13
2024-03-11T13:22:24.618Z,100384.63
2024-03-11T13:25:06.591Z,100389.16
2024-03-11T13:27:34.248Z,100383.31
2024-03-11T13:30:03.062Z,100399.31
2024-03-11T13:32:32.409Z,100385.84
2024-03-11T13:35:00.350Z,100396.44
2024-03-11T13:37:27.288Z,100409.31
2024-03-11T13:39:53.991Z,100399.56
2024-03-11T13:42:21.289Z,100384.63
2024-03-11T13:44:50.807Z,100399.56
2024-03-11T13:47:17.698Z,100414.72
2024-03-11T13:49:47.556Z,100417.63
2024-03-11T13:52:15.160Z,100429.91
2024-03-11T13:54:42.105Z,100425.34
2024-03-11T13:57:09.896Z,100423.25
2024-03-11T13:59:37.719Z,100426.97
2024-03-11T14:02:04.816Z,100420.13
2024-03-11T14:04:31.531Z,100427.38
2024-03-11T14:06:59.733Z,100433.44
2024-03-11T14:09:27.056Z,100431.38
2024-03-11T14:11:54.166Z,100447.00
2024-03-11T14:14:21.096Z,100453.22
2024-03-11T14:16:50.425Z,100453.63
2024-03-11T14:19:19.318Z,100456.97
2024-03-11T14:21:47.144Z,100451.13
2024-03-11T14:24:18.911Z,100445.75
2024-03-11T14:26:45.691Z,100462.78
2024-03-11T14:29:16.705Z,100452.59
2024-03-11T14:31:47.953Z,100460.69
2024-03-11T14:34:15.479Z,100460.94
2024-03-11T14:36:45.299Z,100469.03
2024-03-11T14:39:19.112Z,100465.50
2024-03-11T14:41:49.284Z,100474.66
2024-03-11T14:44:16.481Z,100479.41
2024-03-11T14:46:53.067Z,100478.81
2024-03-11T14:49:25.736Z,100486.91
2024-03-11T14:51:54.983Z,100478.59
2024-03-11T14:54:31.118Z,100480.25
2024-03-11T14:56:58.348Z,100491.06
2024-03-11T14:59:25.918Z,100489.63
2024-03-11T15:01:57.187Z,100493.56
2024-03-11T15:04:27.726Z,100490.25
2024-03-11T15:06:55.182Z,100494.00
2024-03-11T15:09:23.736Z,100500.66
2024-03-11T15:11:56.368Z,100495.03
2024-03-11T15:14:23.160Z,100498.56
2024-03-11T15:16:53.701Z,100505.63
2024-03-11T15:19:21.362Z,100502.53
2024-03-11T15:21:48.986Z,100502.53
2024-03-11T15:24:18.139Z,100505.00
2024-03-11T15:26:46.004Z,100501.88
2024-03-11T15:29:12.691Z,100501.88
2024-03-11T15:31:39.307Z,100502.28
2024-03-11T15:34:06.433Z,100507.69
2024-03-11T15:36:33.674Z,100507.31
2024-03-11T15:39:00.949Z,100518.09
2024-03-11T15:41:28.040Z,100519.31
2024-03-11T15:43:56.981Z,100515.78
2024-03-11T15:46:29.586Z,100524.13
2024-03-11T15:48:59.931Z,100523.91
2024-03-11T15:51:27.496Z,100530.13
2024-03-11T15:53:55.037Z,100525.78
2024-03-11T15:56:22.596Z,100526.41
2024-03-11T15:58:58.570Z,100523.91
2024-03-11T16:01:28.472Z,100520.59
2024-03-11T16:03:59.234Z,100526.41
2024-03-11T16:06:26.503Z,100532.00
2024-03-11T16:08:54.794Z,100527.22
2024-03-11T16:11:22.792Z,100533.69
2024-03-11T16:13:50.131Z,100537.66
2024-03-11T16:16:19.956Z,100544.50
2024-03-11T16:18:47.568Z,100539.31
2024-03-11T16:21:14.991Z,100544.09
2024-03-11T16:23:43.213Z,100535.56
2024-03-11T16:26:10.408Z,100546.78
2024-03-11T16:28:37.955Z,100546.38
2024-03-11T16:31:06.242Z,100547.81
2024-03-11T16:33:33.481Z,100549.06
2024-03-11T16:36:02.046Z,100548.03
2024-03-11T16:38:28.785Z,100561.72
2024-03-11T16:40:55.420Z,100563.38
2024-03-11T16:43:22.381Z,100566.06
2024-03-11T16:45:50.388Z,100567.72
2024-03-11T16:48:18.572Z,100562.09
2024-03-11T16:50:52.624Z,100569.13
2024-03-11T16:53:22.568Z,100576.94
2024-03-11T16:55:52.246Z,100594.97
2024-03-11T16:58:19.267Z,100591.75
2024-03-11T17:00:50.121Z,100597.69
2024-03-11T17:03:20.579Z,100597.63
2024-03-11T17:05:47.625Z,100602.28
2024-03-11T17:08:15.928Z,100592.38
2024-03-11T17:10:46.509Z,100593.63
2024-03-11T17:13:16.106Z,100601.59
2024-03-11T17:15:43.993Z,100605.44
2024-03-11T17:18:13.580Z,100615.25
2024-03-11T17:20:54.774Z,100618.09
2024-03-11T17:23:23.645Z,100632.88
2024-03-11T17:25:54.301Z,100638.19
2024-03-11T17:28:27.114Z,100642.63
2024-03-11T17:30:55.543Z,100636.34
2024-03-11T17:33:23.663Z,100649.78
2024-03-11T17:35:51.747Z,100649.72
2024-03-11T17:38:20.168Z,100657.19
2024-03-11T17:40:49.307Z,100651.06
2024-03-11T17:43:18.412Z,100656.34
2024-03-11T17:45:45.977Z,100662.63
2024-03-11T17:48:17.965Z,100664.00
2024-03-11T17:50:47.145Z,100664.72
2024-03-11T17:53:14.499Z,100657.72
2024-03-11T17:55:42.692Z,100667.38
2024-03-11T17:58:12.483Z,100660.38
2024-03-11T18:00:41.418Z,100661.47
2024-03-11T18:03:08.545Z,100662.66
2024-03-11T18:05:37.763Z,100669.69
2024-03-11T18:08:07.718Z,100674.97
2024-03-11T18:10:42.255Z,100668.75
2024-03-11T18:13:13.261Z,100671.19
2024-03-11T18:15:42.049Z,100672.69
2024-03-11T18:18:11.731Z,100684.28
2024-03-11T18:20:42.298Z,100688.38
2024-03-11T18:23:14.861Z,100681.53
2024-03-11T18:25:43.393Z,100682.16
2024-03-11T18:28:10.367Z,100685.06
2024-03-11T18:30:37.599Z,100695.84
2024-03-11T18:33:06.560Z,100697.50
2024-03-11T18:35:38.161Z,100695.84
2024-03-11T18:38:08.372Z,100704.34
2024-03-11T18:40:35.709Z,100712.91
2024-03-11T18:43:05.040Z,100708.81
2024-03-11T18:45:33.682Z,100702.59
2024-03-11T18:48:01.743Z,100703.78
2024-03-11T18:50:29.329Z,100705.09
2024-03-11T18:53:00.400Z,100701.75
2024-03-11T18:55:31.073Z,100712.53
2024-03-11T18:57:59.742Z,100719.13
2024-03-11T19:00:32.851Z,100702.06
2024-03-11T19:03:02.388Z,100720.72
2024-03-11T19:05:30.716Z,100721.09
2024-03-11T19:07:58.444Z,100713.19
2024-03-11T19:10:28.240Z,100711.25
2024-03-11T19:12:57.096Z,100733.91
2024-03-11T19:15:29.519Z,100731.81
2024-03-11T19:17:56.966Z,100733.84
2024-03-11T19:20:26.509Z,100731.53
2024-03-11T19:22:54.533Z,100740.44
2024-03-11T19:25:25.535Z,100744.53
2024-03-11T19:27:54.203Z,100741.56
2024-03-11T19:30:29.487Z,100741.75
2024-03-11T19:32:58.560Z,100744.19
2024-03-11T19:35:26.480Z,100741.00
2024-03-11T19:38:29.073Z,100754.59
2024-03-11T19:41:24.766Z,100754.41
2024-03-11T19:44:19.893Z,100754.41
2024-03-11T19:47:24.934Z,100750.47
2024-03-11T19:50:16.386Z,100756.88
2024-03-11T19:53:21.256Z,100756.41
2024-03-11T19:55:56.955Z,100764.25
2024-03-11T19:58:50.602Z,100760.06
2024-03-11T20:01:41.099Z,100774.53
2024-03-11T20:04:26.010Z,100775.38
2024-03-11T20:07:12.359Z,100783.25
2024-03-11T20:10:17.995Z,100778.72
2024-03-11T20:13:04.206Z,100786.22
2024-03-11T20:15:41.774Z,100780.00
2024-03-11T20:18:24.160Z,100788.72
2024-03-11T20:21:10.501Z,100783.00
2024-03-11T20:24:04.951Z,100792.09
2024-03-11T20:26:39.011Z,100793.28
2024-03-11T20:29:18.607Z,100790.78
2024-03-11T20:31:56.433Z,100791.16
2024-03-11T20:34:23.844Z,100797.13
2024-03-11T20:36:50.520Z,100800.53
2024-03-11T20:39:17.767Z,100806.47
2024-03-11T20:41:44.708Z,100801.63
2024-03-11T20:44:12.781Z,100802.75
2024-03-11T20:46:39.732Z,100806.34
2024-03-11T20:49:06.988Z,100813.69
2024-03-11T20:51:34.181Z,100810.69
2024-03-11T20:54:00.973Z,100817.25
2024-03-11T20:56:28.251Z,100812.59
2024-03-11T20:58:54.960Z,100817.72
2024-03-11T21:01:21.800Z,100828.19
2024-03-11T21:03:49.071Z,100820.28
2024-03-11T21:06:15.682Z,100825.00
2024-03-11T21:08:44.310Z,100827.88
2024-03-11T21:11:11.117Z,100836.97
2024-03-11T21:13:39.257Z,100840.84
2024-03-11T21:16:12.421Z,100824.66
2024-03-11T21:18:40.315Z,100844.25
2024-03-11T21:21:09.710Z,100844.78
2024-03-11T21:23:47.819Z,100847.31
2024-03-11T21:26:29.588Z,100840.78
2024-03-11T21:28:59.594Z,100841.31
2024-03-11T21:31:31.163Z,100848.25
2024-03-11T21:33:58.009Z,100856.84
2024-03-11T21:36:25.004Z,100863.25
2024-03-11T21:38:51.712Z,100853.00
2024-03-11T21:41:22.043Z,100858.91
2024-03-11T21:43:49.278Z,100863.13
2024-03-11T21:46:16.096Z,100853.47
2024-03-11T21:48:43.021Z,100858.84
2024-03-11T21:51:09.814Z,100859.56
2024-03-11T21:53:37.791Z,100859.25
2024-03-11T21:56:07.602Z,100866.66
2024-03-11T21:58:34.740Z,100867.00
2024-03-11T22:01:01.932Z,100864.00
2024-03-11T22:03:28.676Z,100872.22
2024-03-11T22:05:55.486Z,100873.59
2024-03-11T22:08:22.408Z,100871.06
2024-03-11T22:10:48.983Z,100858.69
2024-03-11T22:13:15.677Z,100872.75
2024-03-11T22:15:44.131Z,100879.47
2024-03-11T22:18:12.340Z,100879.50
2024-03-11T22:20:39.152Z,100867.97
2024-03-11T22:23:06.250Z,100872.31
2024-03-11T22:25:32.897Z,100880.06
2024-03-11T22:27:59.755Z,100882.94
2024-03-11T22:30:26.591Z,100882.94
2024-03-11T22:32:53.501Z,100870.22
2024-03-11T22:35:20.746Z,100884.63
2024-03-11T22:37:47.710Z,100883.28
2024-03-11T22:40:14.768Z,100891.94
2024-03-11T22:42:41.606Z,100889.59
2024-03-11T22:45:09.092Z,100887.75
2024-03-11T22:47:36.089Z,100898.28
2024-03-11T22:50:02.815Z,100893.41
2024-03-11T22:52:29.503Z,100904.63
2024-03-11T22:54:56.235Z,100902.44
2024-03-11T22:57:23.194Z,100904.44
2024-03-11T22:59:49.901Z,100899.38
2024-03-11T23:02:22.779Z,100902.38
2024-03-11T23:04:50.972Z,100905.38
2024-03-11T23:07:24.506Z,100907.06
2024-03-11T23:09:51.518Z,100901.69
2024-03-11T23:12:18.255Z,100908.38
2024-03-11T23:14:44.885Z,100916.94
2024-03-11T23:17:16.207Z,100917.59
2024-03-11T23:19:45.446Z,100914.38
2024-03-11T23:22:16.531Z,100912.84
2024-03-11T23:24:44.069Z,100916.69
2024-03-11T23:27:10.740Z,100916.50
2024-03-11T23:29:38.721Z,100914.66
2024-03-11T23:32:08.051Z,100904.44
2024-03-11T23:34:35.135Z,100916.16
2024-03-11T23:37:01.889Z,100921.53
2024-03-11T23:39:28.830Z,100915.31
2024-03-11T23:41:56.068Z,100924.69
2024-03-11T23:44:23.003Z,100926.03
2024-03-11T23:46:49.782Z,100923.16
2024-03-11T23:49:17.260Z,100922.31
2024-03-11T23:51:46.438Z,100923.66
2024-03-11T23:54:13.452Z,100926.16
2024-03-11T23:56:44.278Z,100924.16
2024-03-11T23:59:14.679Z,100934.72
